sensor_id;sensor_type;location;lat;lon;timestamp;P1;durP1;ratioP1;P2;durP2;ratioP2
47896;SDS011;39629;51.400;5.494;2023-04-01T00:00:44;1.85;;;0.57;;
47896;SDS011;39629;51.400;5.494;2023-04-01T00:05:47;3.38;;;0.52;;
47896;SDS011;39629;51.400;5.494;2023-04-01T00:10:49;1.42;;;0.50;;
47896;SDS011;39629;51.400;5.494;2023-04-01T00:15:51;3.33;;;0.70;;
47896;SDS011;39629;51.400;5.494;2023-04-01T00:20:54;4.68;;;0.70;;
47896;SDS011;39629;51.400;5.494;2023-04-01T00:25:56;1.83;;;0.70;;
47896;SDS011;39629;51.400;5.494;2023-04-01T00:31:03;3.33;;;0.63;;
47896;SDS011;39629;51.400;5.494;2023-04-01T00:36:08;2.65;;;0.70;;
47896;SDS011;39629;51.400;5.494;2023-04-01T00:41:12;1.55;;;0.60;;
47896;SDS011;39629;51.400;5.494;2023-04-01T00:46:14;1.55;;;0.55;;
47896;SDS011;39629;51.400;5.494;2023-04-01T00:51:18;2.28;;;0.50;;
47896;SDS011;39629;51.400;5.494;2023-04-01T00:56:25;3.97;;;0.60;;
47896;SDS011;39629;51.400;5.494;2023-04-01T01:01:31;1.58;;;0.40;;
47896;SDS011;39629;51.400;5.494;2023-04-01T01:06:39;3.65;;;0.60;;
47896;SDS011;39629;51.400;5.494;2023-04-01T01:11:48;2.65;;;0.50;;
47896;SDS011;39629;51.400;5.494;2023-04-01T01:16:54;2.35;;;0.60;;
47896;SDS011;39629;51.400;5.494;2023-04-01T01:22:05;2.30;;;0.50;;
47896;SDS011;39629;51.400;5.494;2023-04-01T01:27:19;2.50;;;0.75;;
47896;SDS011;39629;51.400;5.494;2023-04-01T01:32:28;1.00;;;0.50;;
47896;SDS011;39629;51.400;5.494;2023-04-01T01:37:41;0.70;;;0.40;;
47896;SDS011;39629;51.400;5.494;2023-04-01T01:42:46;1.10;;;0.40;;
47896;SDS011;39629;51.400;5.494;2023-04-01T01:47:51;1.30;;;0.40;;
47896;SDS011;39629;51.400;5.494;2023-04-01T01:53:06;1.17;;;0.50;;
47896;SDS011;39629;51.400;5.494;2023-04-01T01:58:10;0.82;;;0.40;;
47896;SDS011;39629;51.400;5.494;2023-04-01T02:03:15;1.77;;;0.50;;
47896;SDS011;39629;51.400;5.494;2023-04-01T02:08:22;1.95;;;0.65;;
47896;SDS011;39629;51.400;5.494;2023-04-01T02:13:29;1.77;;;0.80;;
47896;SDS011;39629;51.400;5.494;2023-04-01T02:18:35;1.00;;;0.77;;
47896;SDS011;39629;51.400;5.494;2023-04-01T02:23:40;1.48;;;1.10;;
47896;SDS011;39629;51.400;5.494;2023-04-01T02:28:43;1.17;;;0.80;;
47896;SDS011;39629;51.400;5.494;2023-04-01T02:38:50;1.50;;;0.95;;
47896;SDS011;39629;51.400;5.494;2023-04-01T02:43:55;1.67;;;1.30;;
47896;SDS011;39629;51.400;5.494;2023-04-01T02:48:57;3.38;;;2.13;;
47896;SDS011;39629;51.400;5.494;2023-04-01T02:54:00;3.03;;;2.00;;
47896;SDS011;39629;51.400;5.494;2023-04-01T02:59:02;3.57;;;2.43;;
47896;SDS011;39629;51.400;5.494;2023-04-01T03:04:04;5.35;;;2.58;;
47896;SDS011;39629;51.400;5.494;2023-04-01T03:09:07;5.15;;;2.80;;
47896;SDS011;39629;51.400;5.494;2023-04-01T03:14:09;5.07;;;3.22;;
47896;SDS011;39629;51.400;5.494;2023-04-01T03:19:11;6.15;;;2.70;;
47896;SDS011;39629;51.400;5.494;2023-04-01T03:24:14;4.47;;;2.83;;
47896;SDS011;39629;51.400;5.494;2023-04-01T03:29:15;4.60;;;2.50;;
47896;SDS011;39629;51.400;5.494;2023-04-01T03:34:17;4.13;;;2.60;;
47896;SDS011;39629;51.400;5.494;2023-04-01T03:39:20;3.60;;;2.40;;
47896;SDS011;39629;51.400;5.494;2023-04-01T03:44:23;3.88;;;2.28;;
47896;SDS011;39629;51.400;5.494;2023-04-01T03:49:27;3.88;;;2.33;;
47896;SDS011;39629;51.400;5.494;2023-04-01T03:54:30;3.75;;;1.90;;
47896;SDS011;39629;51.400;5.494;2023-04-01T03:59:33;2.78;;;1.92;;
47896;SDS011;39629;51.400;5.494;2023-04-01T04:04:35;3.60;;;2.50;;
47896;SDS011;39629;51.400;5.494;2023-04-01T04:09:39;3.10;;;2.38;;
47896;SDS011;39629;51.400;5.494;2023-04-01T04:14:40;3.55;;;2.53;;
47896;SDS011;39629;51.400;5.494;2023-04-01T04:19:42;4.60;;;3.00;;
47896;SDS011;39629;51.400;5.494;2023-04-01T04:24:46;5.07;;;3.30;;
47896;SDS011;39629;51.400;5.494;2023-04-01T04:29:47;5.88;;;3.20;;
47896;SDS011;39629;51.400;5.494;2023-04-01T04:34:49;6.07;;;3.88;;
47896;SDS011;39629;51.400;5.494;2023-04-01T04:39:52;6.45;;;3.75;;
47896;SDS011;39629;51.400;5.494;2023-04-01T04:44:54;6.30;;;3.55;;
47896;SDS011;39629;51.400;5.494;2023-04-01T04:49:55;5.28;;;3.35;;
47896;SDS011;39629;51.400;5.494;2023-04-01T04:54:58;6.35;;;3.97;;
47896;SDS011;39629;51.400;5.494;2023-04-01T05:00:00;5.60;;;3.47;;
47896;SDS011;39629;51.400;5.494;2023-04-01T05:05:20;6.75;;;3.50;;
47896;SDS011;39629;51.400;5.494;2023-04-01T05:10:26;5.40;;;3.42;;
47896;SDS011;39629;51.400;5.494;2023-04-01T05:15:27;6.45;;;3.58;;
47896;SDS011;39629;51.400;5.494;2023-04-01T05:20:29;4.72;;;3.08;;
47896;SDS011;39629;51.400;5.494;2023-04-01T05:25:32;5.30;;;3.08;;
47896;SDS011;39629;51.400;5.494;2023-04-01T05:30:34;4.22;;;2.88;;
47896;SDS011;39629;51.400;5.494;2023-04-01T05:35:55;4.50;;;2.78;;
47896;SDS011;39629;51.400;5.494;2023-04-01T05:40:59;3.45;;;2.13;;
47896;SDS011;39629;51.400;5.494;2023-04-01T05:46:01;3.53;;;2.13;;
47896;SDS011;39629;51.400;5.494;2023-04-01T05:51:15;3.50;;;2.00;;
47896;SDS011;39629;51.400;5.494;2023-04-01T05:56:18;3.78;;;2.00;;
47896;SDS011;39629;51.400;5.494;2023-04-01T06:01:23;2.40;;;1.52;;
47896;SDS011;39629;51.400;5.494;2023-04-01T06:06:25;3.95;;;1.90;;
47896;SDS011;39629;51.400;5.494;2023-04-01T06:11:37;3.20;;;1.80;;
47896;SDS011;39629;51.400;5.494;2023-04-01T06:16:51;4.28;;;1.80;;
47896;SDS011;39629;51.400;5.494;2023-04-01T06:22:08;3.97;;;1.73;;
47896;SDS011;39629;51.400;5.494;2023-04-01T06:27:39;2.60;;;1.55;;
47896;SDS011;39629;51.400;5.494;2023-04-01T06:32:56;3.03;;;1.80;;
47896;SDS011;39629;51.400;5.494;2023-04-01T06:38:10;2.83;;;1.70;;
47896;SDS011;39629;51.400;5.494;2023-04-01T06:43:27;2.72;;;1.50;;
47896;SDS011;39629;51.400;5.494;2023-04-01T06:54:43;3.10;;;1.75;;
47896;SDS011;39629;51.400;5.494;2023-04-01T07:00:30;2.72;;;1.60;;
47896;SDS011;39629;51.400;5.494;2023-04-01T07:05:35;2.28;;;1.58;;
47896;SDS011;39629;51.400;5.494;2023-04-01T07:10:41;3.47;;;2.13;;
47896;SDS011;39629;51.400;5.494;2023-04-01T07:16:08;3.67;;;2.08;;
47896;SDS011;39629;51.400;5.494;2023-04-01T07:21:22;4.38;;;2.67;;
47896;SDS011;39629;51.400;5.494;2023-04-01T07:26:30;5.55;;;2.88;;
47896;SDS011;39629;51.400;5.494;2023-04-01T07:31:45;9.77;;;3.88;;
47896;SDS011;39629;51.400;5.494;2023-04-01T07:36:58;8.23;;;3.25;;
47896;SDS011;39629;51.400;5.494;2023-04-01T07:42:06;9.40;;;5.10;;
47896;SDS011;39629;51.400;5.494;2023-04-01T07:47:31;11.77;;;5.28;;
47896;SDS011;39629;51.400;5.494;2023-04-01T07:52:43;10.88;;;4.95;;
47896;SDS011;39629;51.400;5.494;2023-04-01T07:57:57;8.10;;;4.63;;
47896;SDS011;39629;51.400;5.494;2023-04-01T08:03:24;12.13;;;6.55;;
47896;SDS011;39629;51.400;5.494;2023-04-01T08:08:39;15.63;;;7.00;;
47896;SDS011;39629;51.400;5.494;2023-04-01T08:14:08;16.02;;;7.82;;
47896;SDS011;39629;51.400;5.494;2023-04-01T08:19:54;18.15;;;8.02;;
47896;SDS011;39629;51.400;5.494;2023-04-01T08:25:06;14.85;;;7.82;;
47896;SDS011;39629;51.400;5.494;2023-04-01T08:30:16;17.73;;;7.85;;
47896;SDS011;39629;51.400;5.494;2023-04-01T08:35:24;18.73;;;8.20;;
47896;SDS011;39629;51.400;5.494;2023-04-01T08:40:41;15.20;;;8.13;;
47896;SDS011;39629;51.400;5.494;2023-04-01T08:46:01;19.23;;;9.02;;
47896;SDS011;39629;51.400;5.494;2023-04-01T08:51:42;13.32;;;6.22;;
47896;SDS011;39629;51.400;5.494;2023-04-01T08:57:10;12.02;;;7.10;;
47896;SDS011;39629;51.400;5.494;2023-04-01T09:02:46;12.02;;;5.90;;
47896;SDS011;39629;51.400;5.494;2023-04-01T09:08:03;12.80;;;6.10;;
47896;SDS011;39629;51.400;5.494;2023-04-01T09:13:20;11.02;;;6.07;;
47896;SDS011;39629;51.400;5.494;2023-04-01T09:18:49;8.52;;;5.20;;
47896;SDS011;39629;51.400;5.494;2023-04-01T09:24:11;10.25;;;5.18;;
47896;SDS011;39629;51.400;5.494;2023-04-01T09:29:30;6.90;;;4.80;;
47896;SDS011;39629;51.400;5.494;2023-04-01T09:34:53;10.18;;;5.53;;
47896;SDS011;39629;51.400;5.494;2023-04-01T09:40:13;9.73;;;4.67;;
47896;SDS011;39629;51.400;5.494;2023-04-01T09:45:28;6.90;;;4.13;;
47896;SDS011;39629;51.400;5.494;2023-04-01T09:50:47;6.55;;;3.42;;
47896;SDS011;39629;51.400;5.494;2023-04-01T10:13:16;7.13;;;4.00;;
47896;SDS011;39629;51.400;5.494;2023-04-01T10:18:50;7.40;;;4.18;;
47896;SDS011;39629;51.400;5.494;2023-04-01T10:24:22;7.10;;;3.88;;
47896;SDS011;39629;51.400;5.494;2023-04-01T10:29:52;7.18;;;3.85;;
47896;SDS011;39629;51.400;5.494;2023-04-01T10:35:38;6.28;;;3.35;;
47896;SDS011;39629;51.400;5.494;2023-04-01T10:41:11;5.60;;;3.53;;
47896;SDS011;39629;51.400;5.494;2023-04-01T10:46:58;6.07;;;3.33;;
47896;SDS011;39629;51.400;5.494;2023-04-01T11:10:53;4.30;;;2.58;;
47896;SDS011;39629;51.400;5.494;2023-04-01T11:22:10;3.97;;;2.30;;
47896;SDS011;39629;51.400;5.494;2023-04-01T11:27:38;4.90;;;2.50;;
47896;SDS011;39629;51.400;5.494;2023-04-01T11:32:51;4.30;;;2.70;;
47896;SDS011;39629;51.400;5.494;2023-04-01T11:37:57;4.03;;;2.25;;
47896;SDS011;39629;51.400;5.494;2023-04-01T11:43:23;4.67;;;2.70;;
47896;SDS011;39629;51.400;5.494;2023-04-01T11:49:00;4.90;;;2.50;;
47896;SDS011;39629;51.400;5.494;2023-04-01T11:54:19;4.20;;;2.53;;
47896;SDS011;39629;51.400;5.494;2023-04-01T11:59:41;4.07;;;2.47;;
47896;SDS011;39629;51.400;5.494;2023-04-01T12:04:58;6.90;;;2.60;;
47896;SDS011;39629;51.400;5.494;2023-04-01T12:10:12;3.38;;;2.33;;
47896;SDS011;39629;51.400;5.494;2023-04-01T12:15:22;3.72;;;2.38;;
47896;SDS011;39629;51.400;5.494;2023-04-01T12:20:37;4.67;;;2.40;;
47896;SDS011;39629;51.400;5.494;2023-04-01T12:25:59;4.25;;;1.90;;
47896;SDS011;39629;51.400;5.494;2023-04-01T12:31:18;3.80;;;1.85;;
47896;SDS011;39629;51.400;5.494;2023-04-01T12:36:35;2.97;;;1.90;;
47896;SDS011;39629;51.400;5.494;2023-04-01T12:41:45;2.78;;;1.88;;
47896;SDS011;39629;51.400;5.494;2023-04-01T12:47:04;2.90;;;1.70;;
47896;SDS011;39629;51.400;5.494;2023-04-01T12:52:31;2.50;;;1.60;;
47896;SDS011;39629;51.400;5.494;2023-04-01T12:57:46;3.17;;;1.85;;
47896;SDS011;39629;51.400;5.494;2023-04-01T13:03:35;3.78;;;2.05;;
47896;SDS011;39629;51.400;5.494;2023-04-01T13:08:49;2.97;;;1.95;;
47896;SDS011;39629;51.400;5.494;2023-04-01T13:14:05;2.60;;;1.70;;
47896;SDS011;39629;51.400;5.494;2023-04-01T13:19:21;3.97;;;2.15;;
47896;SDS011;39629;51.400;5.494;2023-04-01T13:24:31;2.90;;;1.88;;
47896;SDS011;39629;51.400;5.494;2023-04-01T13:29:43;5.10;;;2.22;;
47896;SDS011;39629;51.400;5.494;2023-04-01T13:34:55;3.10;;;2.17;;
47896;SDS011;39629;51.400;5.494;2023-04-01T13:40:15;3.42;;;2.33;;
47896;SDS011;39629;51.400;5.494;2023-04-01T13:45:27;3.60;;;2.30;;
47896;SDS011;39629;51.400;5.494;2023-04-01T13:50:51;4.35;;;2.30;;
47896;SDS011;39629;51.400;5.494;2023-04-01T13:56:14;4.43;;;2.42;;
47896;SDS011;39629;51.400;5.494;2023-04-01T14:01:29;3.92;;;2.60;;
47896;SDS011;39629;51.400;5.494;2023-04-01T14:06:39;4.55;;;2.70;;
47896;SDS011;39629;51.400;5.494;2023-04-01T14:11:51;5.38;;;2.50;;
47896;SDS011;39629;51.400;5.494;2023-04-01T14:17:08;5.05;;;2.60;;
47896;SDS011;39629;51.400;5.494;2023-04-01T14:22:23;5.05;;;2.72;;
47896;SDS011;39629;51.400;5.494;2023-04-01T14:27:34;4.05;;;2.40;;
47896;SDS011;39629;51.400;5.494;2023-04-01T14:32:55;3.97;;;2.10;;
47896;SDS011;39629;51.400;5.494;2023-04-01T14:38:09;4.07;;;2.33;;
47896;SDS011;39629;51.400;5.494;2023-04-01T14:43:30;5.50;;;2.30;;
47896;SDS011;39629;51.400;5.494;2023-04-01T14:48:49;4.60;;;2.30;;
47896;SDS011;39629;51.400;5.494;2023-04-01T14:53:58;2.78;;;1.90;;
47896;SDS011;39629;51.400;5.494;2023-04-01T14:59:07;2.97;;;1.65;;
47896;SDS011;39629;51.400;5.494;2023-04-01T15:04:17;3.63;;;1.90;;
47896;SDS011;39629;51.400;5.494;2023-04-01T15:09:37;4.97;;;2.00;;
47896;SDS011;39629;51.400;5.494;2023-04-01T15:14:54;2.78;;;1.88;;
47896;SDS011;39629;51.400;5.494;2023-04-01T15:20:10;3.20;;;1.88;;
47896;SDS011;39629;51.400;5.494;2023-04-01T15:25:27;4.45;;;2.17;;
47896;SDS011;39629;51.400;5.494;2023-04-01T15:30:39;3.60;;;1.80;;
47896;SDS011;39629;51.400;5.494;2023-04-01T15:35:56;2.40;;;1.60;;
47896;SDS011;39629;51.400;5.494;2023-04-01T15:41:10;3.42;;;1.83;;
47896;SDS011;39629;51.400;5.494;2023-04-01T15:51:47;3.35;;;2.10;;
47896;SDS011;39629;51.400;5.494;2023-04-01T15:57:04;2.90;;;2.10;;
47896;SDS011;39629;51.400;5.494;2023-04-01T16:02:17;2.90;;;2.00;;
47896;SDS011;39629;51.400;5.494;2023-04-01T16:13:18;3.47;;;2.08;;
47896;SDS011;39629;51.400;5.494;2023-04-01T16:18:35;3.95;;;2.10;;
47896;SDS011;39629;51.400;5.494;2023-04-01T16:23:47;3.45;;;2.30;;
47896;SDS011;39629;51.400;5.494;2023-04-01T16:28:55;5.40;;;2.20;;
47896;SDS011;39629;51.400;5.494;2023-04-01T16:34:06;2.88;;;2.03;;
47896;SDS011;39629;51.400;5.494;2023-04-01T16:39:17;3.15;;;2.10;;
47896;SDS011;39629;51.400;5.494;2023-04-01T16:44:28;3.08;;;2.20;;
47896;SDS011;39629;51.400;5.494;2023-04-01T16:49:32;3.58;;;2.25;;
47896;SDS011;39629;51.400;5.494;2023-04-01T16:54:39;4.38;;;2.50;;
47896;SDS011;39629;51.400;5.494;2023-04-01T16:59:48;4.05;;;2.45;;
47896;SDS011;39629;51.400;5.494;2023-04-01T17:05:00;3.92;;;2.35;;
47896;SDS011;39629;51.400;5.494;2023-04-01T17:10:17;4.30;;;2.65;;
47896;SDS011;39629;51.400;5.494;2023-04-01T17:15:28;3.97;;;2.55;;
47896;SDS011;39629;51.400;5.494;2023-04-01T17:20:40;6.13;;;3.20;;
47896;SDS011;39629;51.400;5.494;2023-04-01T17:25:47;7.95;;;4.53;;
47896;SDS011;39629;51.400;5.494;2023-04-01T17:30:59;6.15;;;4.22;;
47896;SDS011;39629;51.400;5.494;2023-04-01T17:36:09;6.65;;;4.63;;
47896;SDS011;39629;51.400;5.494;2023-04-01T17:41:25;5.07;;;3.83;;
47896;SDS011;39629;51.400;5.494;2023-04-01T17:46:41;7.40;;;3.90;;
47896;SDS011;39629;51.400;5.494;2023-04-01T17:51:53;5.43;;;3.65;;
47896;SDS011;39629;51.400;5.494;2023-04-01T17:57:02;5.72;;;3.90;;
47896;SDS011;39629;51.400;5.494;2023-04-01T18:02:27;7.22;;;3.80;;
47896;SDS011;39629;51.400;5.494;2023-04-01T18:07:50;4.97;;;2.90;;
47896;SDS011;39629;51.400;5.494;2023-04-01T18:13:26;4.68;;;3.05;;
47896;SDS011;39629;51.400;5.494;2023-04-01T18:18:45;4.50;;;2.80;;
47896;SDS011;39629;51.400;5.494;2023-04-01T18:23:55;4.93;;;2.80;;
47896;SDS011;39629;51.400;5.494;2023-04-01T18:29:02;4.00;;;2.75;;
47896;SDS011;39629;51.400;5.494;2023-04-01T18:34:16;5.68;;;3.22;;
47896;SDS011;39629;51.400;5.494;2023-04-01T18:39:32;5.03;;;3.15;;
47896;SDS011;39629;51.400;5.494;2023-04-01T18:44:38;5.13;;;3.22;;
47896;SDS011;39629;51.400;5.494;2023-04-01T18:49:50;5.55;;;3.53;;
47896;SDS011;39629;51.400;5.494;2023-04-01T19:00:32;4.85;;;2.90;;
47896;SDS011;39629;51.400;5.494;2023-04-01T19:05:39;4.60;;;3.00;;
47896;SDS011;39629;51.400;5.494;2023-04-01T19:10:43;4.22;;;2.33;;
47896;SDS011;39629;51.400;5.494;2023-04-01T19:15:55;6.55;;;3.50;;
47896;SDS011;39629;51.400;5.494;2023-04-01T19:21:04;4.53;;;2.53;;
47896;SDS011;39629;51.400;5.494;2023-04-01T19:26:13;4.07;;;2.33;;
47896;SDS011;39629;51.400;5.494;2023-04-01T19:31:28;5.07;;;2.80;;
47896;SDS011;39629;51.400;5.494;2023-04-01T19:36:44;4.55;;;2.92;;
47896;SDS011;39629;51.400;5.494;2023-04-01T19:41:51;5.05;;;3.30;;
47896;SDS011;39629;51.400;5.494;2023-04-01T19:47:02;5.22;;;2.95;;
47896;SDS011;39629;51.400;5.494;2023-04-01T19:52:14;5.78;;;3.50;;
47896;SDS011;39629;51.400;5.494;2023-04-01T19:57:26;6.50;;;4.32;;
47896;SDS011;39629;51.400;5.494;2023-04-01T20:02:39;5.97;;;3.67;;
47896;SDS011;39629;51.400;5.494;2023-04-01T20:07:56;6.63;;;3.60;;
47896;SDS011;39629;51.400;5.494;2023-04-01T20:13:06;6.25;;;3.80;;
47896;SDS011;39629;51.400;5.494;2023-04-01T20:18:16;6.15;;;3.55;;
47896;SDS011;39629;51.400;5.494;2023-04-01T20:23:29;6.80;;;4.20;;
47896;SDS011;39629;51.400;5.494;2023-04-01T20:28:43;8.25;;;4.60;;
47896;SDS011;39629;51.400;5.494;2023-04-01T20:45:11;7.15;;;4.15;;
47896;SDS011;39629;51.400;5.494;2023-04-01T20:50:23;6.10;;;3.97;;
47896;SDS011;39629;51.400;5.494;2023-04-01T20:55:33;9.63;;;4.22;;
47896;SDS011;39629;51.400;5.494;2023-04-01T21:00:59;6.07;;;3.97;;
47896;SDS011;39629;51.400;5.494;2023-04-01T21:06:20;6.65;;;4.15;;
47896;SDS011;39629;51.400;5.494;2023-04-01T21:11:38;5.67;;;3.67;;
47896;SDS011;39629;51.400;5.494;2023-04-01T21:16:50;5.78;;;3.70;;
47896;SDS011;39629;51.400;5.494;2023-04-01T21:22:03;5.57;;;3.72;;
47896;SDS011;39629;51.400;5.494;2023-04-01T21:27:19;6.13;;;3.67;;
47896;SDS011;39629;51.400;5.494;2023-04-01T21:38:12;6.85;;;4.18;;
47896;SDS011;39629;51.400;5.494;2023-04-01T21:43:29;6.50;;;4.22;;
47896;SDS011;39629;51.400;5.494;2023-04-01T21:48:49;6.40;;;4.07;;
47896;SDS011;39629;51.400;5.494;2023-04-01T21:54:06;7.43;;;3.97;;
47896;SDS011;39629;51.400;5.494;2023-04-01T22:05:17;7.00;;;4.55;;
47896;SDS011;39629;51.400;5.494;2023-04-01T22:10:25;7.05;;;4.40;;
47896;SDS011;39629;51.400;5.494;2023-04-01T22:15:44;4.80;;;2.90;;
47896;SDS011;39629;51.400;5.494;2023-04-01T22:20:58;6.50;;;4.30;;
47896;SDS011;39629;51.400;5.494;2023-04-01T22:26:05;7.30;;;4.50;;
47896;SDS011;39629;51.400;5.494;2023-04-01T22:31:12;7.50;;;4.93;;
47896;SDS011;39629;51.400;5.494;2023-04-01T22:36:21;7.30;;;4.60;;
47896;SDS011;39629;51.400;5.494;2023-04-01T22:41:33;8.32;;;4.75;;
47896;SDS011;39629;51.400;5.494;2023-04-01T22:46:47;7.78;;;5.20;;
47896;SDS011;39629;51.400;5.494;2023-04-01T22:52:03;8.23;;;4.68;;
47896;SDS011;39629;51.400;5.494;2023-04-01T22:57:12;8.20;;;4.72;;
47896;SDS011;39629;51.400;5.494;2023-04-01T23:02:20;8.27;;;5.47;;
47896;SDS011;39629;51.400;5.494;2023-04-01T23:07:33;8.48;;;5.53;;
47896;SDS011;39629;51.400;5.494;2023-04-01T23:12:46;10.15;;;6.07;;
47896;SDS011;39629;51.400;5.494;2023-04-01T23:17:51;9.77;;;6.07;;
47896;SDS011;39629;51.400;5.494;2023-04-01T23:23:11;8.57;;;5.60;;
47896;SDS011;39629;51.400;5.494;2023-04-01T23:28:26;7.22;;;4.55;;
47896;SDS011;39629;51.400;5.494;2023-04-01T23:33:40;9.20;;;5.70;;
47896;SDS011;39629;51.400;5.494;2023-04-01T23:38:43;9.65;;;5.70;;
47896;SDS011;39629;51.400;5.494;2023-04-01T23:43:51;6.75;;;4.82;;
47896;SDS011;39629;51.400;5.494;2023-04-01T23:48:57;8.02;;;4.47;;
47896;SDS011;39629;51.400;5.494;2023-04-01T23:54:02;6.47;;;4.47;;
47896;SDS011;39629;51.400;5.494;2023-04-01T23:59:09;8.25;;;4.55;;
